Decoded Metar for LFPB (PARIS LE BOURGET in FRANCE) (IATA:LBG) | Meteo·Mobile Aviation Weather
aviador You're here:

LFPB Decoded Metar

PARIS LE BOURGET in FRANCE
Report Time2018-10-17 04:30:00
UTC Time2018-10-17 04:52:25
Flight Rules vfr VFR
Wind340° at 02 kt
W.Decomp.*RWY 03: 1.3 kt HW 1.5 kt LCW
RWY 27: 0.7 kt HW 1.9 kt RCW
RWY 07: 2 kt LCW
W.Rank340° ranks 18
Current wind is below 340° avg. (5.3)
Visibility9999 m
Phenomena:Fog
Clouds:N/A
Expected CloudBase > 800 ft AGL from Temp-Dew spread
CeilingNone
Temp11°C (ISA -4)
Dew Point09°C (88% RH)
AAT10.1°C
QNH1019 hPa
Density Alt-262 ft
Elevation213 ft
Report Wrong Elevation
Raw Report
LFPB 170430Z AUTO 34002KT CAVOK 11/09 Q1019 TEMPO 0400 FG
VV///=

Extra information for LFPB:More info

Metar Taf Metar & Taf Last 4 Metars F.Rules Stats Wind Profile Meteogram Temp Stats Airport Information Weather charts Add Link Nearby VenuesMetar ALERT Operation Metar Decoded Social comments